Latest Weather Observations for Kingscote

IDS60801

Issued at 3:35 am CST Thursday 24 July 2014 (issued every 30 minutes, with the page automatically refreshed every 10 minutes)

About weather observations | Map of weather stations | Latest weather observations for SA | Other Formats
Station Details ID: 022841 Name: KINGSCOTE AERO Lat: -35.71 Lon: 137.52 Height: 6.23 m
Data from the previous 72 hours. | See also: Recent months at Kingscote
Date/Time
CST
Temp
°C
App
Temp
°C
Dew
Point
Rel
Hum
%
Delta-T
°C
Wind Press
QNH
hPa
Press
MSL
hPa
Rain
since 9 am
mm
Dir
 
Spd
km/h
Gust
km/h
Spd
kts
Gust
kts
24/03:30am 10.8 5.6 10.2 96 0.3 NE 28 39 15 21 1003.4 - 14.6
24/03:12am 10.8 4.8 10.0 95 0.4 NE 32 43 17 23 1003.7 - 13.6
24/03:10am 10.9 5.3 10.1 95 0.4 NE 30 43 16 23 1003.7 - 13.6
24/03:00am 11.0 5.0 10.2 95 0.4 NNE 32 46 17 25 1003.8 1003.8 13.6
24/02:40am 10.9 5.7 10.1 95 0.4 NE 28 48 15 26 1003.9 - 13.2
24/02:30am 10.9 5.3 10.1 95 0.4 NE 30 44 16 24 1004.1 - 13.0
24/02:09am 11.0 6.1 10.1 94 0.5 NE 26 43 14 23 1004.5 - 12.0
24/02:00am 10.9 5.6 9.8 93 0.6 NNE 28 41 15 22 1004.7 - 11.8
24/01:30am 11.2 6.2 9.6 90 0.8 NE 26 39 14 21 1005.0 - 10.4
24/01:17am 11.3 5.9 9.6 89 0.9 NE 28 35 15 19 1005.1 - 9.4
24/01:00am 11.4 5.0 9.5 88 1.0 NE 33 46 18 25 1005.4 - 9.0
24/12:30am 11.6 6.1 9.3 86 1.2 NE 28 41 15 22 1005.8 - 8.6
24/12:00am 11.9 7.6 9.5 85 1.2 NNE 22 35 12 19 1006.5 1006.5 8.4
 
Date/Time
CST
Temp
°C
App
Temp
°C
Dew
Point
Rel
Hum
%
Delta-T
°C
Wind Press
QNH
hPa
Press
MSL
hPa
Rain
since 9 am
mm
Dir
 
Spd
km/h
Gust
km/h
Spd
kts
Gust
kts
23/11:30pm 11.6 7.0 9.5 87 1.1 NE 24 33 13 18 1007.3 - 8.2
23/11:00pm 11.6 4.8 9.2 85 1.2 NE 35 48 19 26 1007.7 - 8.0
23/10:42pm 11.5 5.1 9.2 86 1.2 NNE 33 54 18 29 1008.0 - 8.0
23/10:30pm 11.5 5.3 9.4 87 1.1 NNE 32 50 17 27 1008.2 - 8.0
23/10:27pm 11.6 5.4 9.3 86 1.2 NNE 32 54 17 29 1008.3 - 7.8
23/10:19pm 12.1 5.6 9.1 82 1.5 NNE 33 54 18 29 1008.5 - 7.4
23/10:00pm 11.9 5.6 9.1 83 1.4 NNE 32 46 17 25 1008.6 - 7.4
23/09:52pm 11.9 6.4 9.1 83 1.4 NE 28 46 15 25 1008.7 - 7.4
23/09:36pm 11.6 6.1 9.3 86 1.2 NE 28 37 15 20 1009.1 - 7.4
23/09:30pm 11.4 6.8 9.5 88 1.0 NE 24 35 13 19 1009.1 - 7.4
23/09:10pm 11.4 5.2 9.3 87 1.1 NNE 32 43 17 23 1009.3 - 6.2
23/09:00pm 11.7 5.3 9.3 85 1.2 NE 33 50 18 27 1009.2 1009.2 5.6
23/08:48pm 11.5 5.6 9.2 86 1.2 NE 30 48 16 26 1009.3 - 5.6
23/08:30pm 11.3 5.5 9.6 89 0.9 NNE 30 46 16 25 1009.7 - 5.6
23/08:03pm 11.6 5.2 9.3 86 1.2 NNE 33 52 18 28 1009.9 - 5.2
23/08:00pm 11.7 4.9 9.4 86 1.2 NNE 35 52 19 28 1009.9 - 5.2
23/07:30pm 12.0 4.8 9.2 83 1.4 NNE 37 56 20 30 1010.0 - 5.0
23/07:19pm 11.9 4.7 9.3 84 1.3 NNE 37 56 20 30 1009.8 - 5.0
23/07:00pm 12.1 4.9 9.3 83 1.4 NNE 37 52 20 28 1009.7 - 5.0
23/06:34pm 12.6 5.3 8.7 77 1.9 NNE 37 63 20 34 1009.5 - 5.0
23/06:30pm 12.6 5.3 8.7 77 1.9 NNE 37 50 20 27 1009.6 - 5.0
23/06:00pm 12.6 6.3 8.9 78 1.9 NE 32 43 17 23 1009.6 1009.6 5.0
23/05:30pm 12.1 6.7 9.5 84 1.3 NE 28 41 15 22 1009.7 - 5.0
23/05:00pm 12.4 6.3 9.6 83 1.4 NE 32 43 17 23 1010.2 - 4.6
23/04:30pm 12.9 7.7 10.1 83 1.4 NE 28 37 15 20 1010.0 - 4.2
23/04:00pm 11.9 7.4 10.1 89 0.9 ENE 24 32 13 17 1010.0 - 4.2
23/03:30pm 11.8 7.8 10.4 91 0.7 ENE 22 28 12 15 1010.5 - 4.2
23/03:10pm 11.7 7.7 10.6 93 0.6 ENE 22 28 12 15 1010.6 - 4.2
23/03:00pm 11.7 7.7 10.6 93 0.6 ENE 22 35 12 19 1010.8 1010.8 4.2
23/02:30pm 11.8 8.3 10.9 94 0.5 ENE 20 28 11 15 1011.2 - 4.2
23/02:18pm 11.8 8.5 11.0 95 0.4 ENE 19 26 10 14 1011.4 - 4.2
23/02:00pm 11.6 8.3 10.8 95 0.4 ENE 19 24 10 13 1011.6 - 4.2
23/01:36pm 11.5 8.9 10.7 95 0.4 E 15 20 8 11 1012.1 - 3.8
23/01:30pm 11.4 8.4 10.6 95 0.4 E 17 20 9 11 1012.3 - 3.6
23/01:14pm 11.3 8.9 10.2 93 0.6 NE 13 17 7 9 1013.2 - 3.0
23/01:13pm 11.3 8.9 10.2 93 0.6 NE 13 17 7 9 1013.3 - 2.8
23/01:00pm 11.4 9.4 10.1 92 0.7 NNE 11 17 6 9 1013.9 - 2.4
23/12:44pm 11.5 8.6 9.8 89 0.9 N 15 20 8 11 1014.4 - 1.4
23/12:42pm 11.5 8.6 9.6 88 1.0 N 15 20 8 11 1014.5 - 1.4
23/12:30pm 11.8 8.5 9.4 85 1.2 N 17 24 9 13 1014.8 - 0.8
23/12:20pm 12.2 9.1 8.7 79 1.7 N 15 20 8 11 1014.8 - 0.4
23/12:00pm 13.3 9.7 8.4 72 2.4 N 17 24 9 13 1014.8 1014.8 0.0
23/11:30am 13.9 10.6 8.1 68 2.9 N 15 22 8 12 1015.4 - 0.0
23/11:00am 13.6 10.8 8.4 71 2.6 N 13 22 7 12 1015.7 - 0.0
23/10:30am 13.7 10.0 9.6 76 2.1 NNE 19 26 10 14 1016.2 - 0.0
23/10:00am 13.1 10.1 9.4 78 1.9 NNE 15 19 8 10 1016.2 - 0.0
23/09:30am 13.0 9.9 8.9 76 2.1 NNE 15 20 8 11 1016.4 - 0.0
23/09:00am 12.6 10.5 8.3 75 2.1 N 9 13 5 7 1016.4 1016.4 0.0
23/08:30am 12.4 8.8 8.3 76 2.0 NNE 17 24 9 13 1016.3 - 0.0
23/08:00am 12.3 9.3 7.8 74 2.2 N 13 19 7 10 1016.7 - 0.0
23/07:30am 11.7 9.2 8.0 78 1.8 NNE 11 15 6 8 1017.1 - 0.0
23/07:00am 11.8 9.2 7.9 77 1.9 N 11 13 6 7 1017.2 - 0.0
23/06:30am 11.7 9.2 8.0 78 1.8 NNE 11 15 6 8 1017.2 - 0.0
23/06:00am 11.6 8.7 8.1 79 1.7 NNE 13 15 7 8 1017.1 1017.1 0.0
23/05:30am 11.2 7.9 8.1 81 1.5 NNE 15 19 8 10 1017.1 - 0.0
23/05:00am 10.2 8.7 8.5 89 0.8 E 6 17 3 9 1017.3 - 0.0
23/04:30am 8.4 7.8 7.5 94 0.4 CALM 0 0 0 0 1017.4 - 0.0
23/04:00am 7.9 5.9 7.0 94 0.4 SSE 7 9 4 5 1017.7 - 0.0
23/03:30am 7.9 7.3 7.5 97 0.2 CALM 0 9 0 5 1017.9 - 0.0
23/03:00am 6.2 5.2 5.8 97 0.2 CALM 0 0 0 0 1018.1 1018.1 0.0
23/02:30am 5.4 4.3 5.0 97 0.2 CALM 0 0 0 0 1018.5 - 0.0
23/02:00am 5.3 4.2 4.9 97 0.2 CALM 0 0 0 0 1019.0 - 0.0
23/01:30am 5.5 4.4 5.1 97 0.2 CALM 0 0 0 0 1018.9 - 0.0
23/01:00am 5.6 4.5 5.2 97 0.2 CALM 0 0 0 0 1018.9 - 0.0
23/12:30am 5.7 4.6 5.3 97 0.2 CALM 0 0 0 0 1019.4 - 0.0
23/12:00am 5.5 4.4 5.1 97 0.2 CALM 0 0 0 0 1019.7 1019.7 0.0
 
Date/Time
CST
Temp
°C
App
Temp
°C
Dew
Point
Rel
Hum
%
Delta-T
°C
Wind Press
QNH
hPa
Press
MSL
hPa
Rain
since 9 am
mm
Dir
 
Spd
km/h
Gust
km/h
Spd
kts
Gust
kts
22/11:30pm 5.7 4.6 5.3 97 0.2 CALM 0 0 0 0 1020.0 - 0.0
22/11:00pm 5.9 4.9 5.5 97 0.2 CALM 0 0 0 0 1020.2 - 0.0
22/10:30pm 5.7 4.6 5.1 96 0.3 CALM 0 0 0 0 1020.3 - 0.0
22/10:00pm 6.0 5.0 5.4 96 0.3 CALM 0 0 0 0 1020.5 - 0.0
22/09:30pm 6.6 5.7 6.0 96 0.3 CALM 0 0 0 0 1020.5 - 0.0
22/09:00pm 6.6 5.7 6.0 96 0.3 CALM 0 0 0 0 1020.9 1020.9 0.0
22/08:30pm 6.3 5.3 5.6 95 0.3 CALM 0 0 0 0 1020.8 - 0.0
22/08:00pm 6.8 5.9 5.9 94 0.4 CALM 0 0 0 0 1021.0 - 0.0
22/07:30pm 7.5 6.7 6.6 94 0.4 CALM 0 0 0 0 1021.1 - 0.0
22/07:00pm 8.2 7.5 7.0 92 0.6 CALM 0 0 0 0 1021.1 - 0.0
22/06:30pm 9.4 9.0 8.2 92 0.6 CALM 0 0 0 0 1021.2 - 0.0
22/06:00pm 9.9 8.3 8.0 88 0.9 E 6 7 3 4 1020.9 1020.9 0.0
22/05:30pm 11.4 9.9 8.4 82 1.5 NE 6 7 3 4 1021.2 - 0.0
22/05:00pm 12.4 10.4 8.5 77 1.9 NE 9 11 5 6 1021.1 - 0.0
22/04:30pm 13.4 10.3 8.9 74 2.3 ENE 15 19 8 10 1020.4 - 0.0
22/04:00pm 14.4 11.9 9.8 74 2.4 E 13 15 7 8 1020.5 - 0.0
22/03:30pm 14.9 12.3 9.3 69 2.9 E 13 17 7 9 1020.8 - 0.0
22/03:00pm 15.3 12.3 9.4 68 3.0 ENE 15 20 8 11 1020.9 1020.9 0.0
22/02:30pm 15.6 13.0 9.3 66 3.2 ENE 13 17 7 9 1021.2 - 0.0
22/02:00pm 15.6 12.6 9.3 66 3.2 ENE 15 20 8 11 1021.3 - 0.0
22/01:30pm 15.9 13.2 8.9 63 3.6 NE 13 15 7 8 1021.5 - 0.0
22/01:00pm 15.3 12.4 8.3 63 3.5 NE 13 19 7 10 1021.9 - 0.0
22/12:30pm 15.4 12.4 9.1 66 3.2 NE 15 20 8 11 1022.4 - 0.0
22/12:00pm 15.1 12.4 8.8 66 3.2 NNE 13 19 7 10 1022.9 1022.9 0.0
22/11:30am 14.7 11.2 8.6 67 3.1 NNE 17 20 9 11 1023.2 - 0.0
22/11:00am 14.6 11.2 9.2 70 2.8 NE 17 20 9 11 1023.7 - 0.0
22/10:30am 13.2 11.4 9.6 79 1.8 NNE 9 15 5 8 1023.9 - 0.0
22/10:00am 11.3 11.5 10.4 94 0.5 CALM 0 0 0 0 1023.9 - 0.0
22/09:33am 9.7 9.6 9.4 98 0.1 CALM 0 0 0 0 1023.8 - 0.0
22/09:30am 9.3 9.1 9.0 98 0.1 CALM 0 0 0 0 1023.9 - 0.0
22/09:26am 8.5 8.1 8.2 98 0.1 CALM 0 0 0 0 1023.9 - 0.0
22/09:00am 6.5 5.6 6.2 98 0.1 CALM 0 0 0 0 1023.8 1023.8 0.0
22/08:30am 4.9 3.7 4.6 98 0.1 CALM 0 0 0 0 1023.7 - 0.0
22/08:11am 3.9 2.5 3.6 98 0.1 CALM 0 0 0 0 1023.6 - 0.0
22/08:04am 3.3 1.8 3.0 98 0.1 CALM 0 0 0 0 1023.6 - 0.0
22/08:01am 3.1 1.5 2.7 97 0.2 CALM 0 0 0 0 1023.6 - 0.0
22/08:00am 3.1 1.5 2.7 97 0.2 CALM 0 0 0 0 1023.6 - 0.0
22/07:49am 3.0 1.4 2.6 97 0.2 CALM 0 0 0 0 1023.5 - 0.0
22/07:36am 3.0 1.4 2.6 97 0.2 CALM 0 0 0 0 1023.5 - 0.0
22/07:30am 3.0 1.4 2.6 97 0.2 CALM 0 0 0 0 1023.4 - 0.0
22/07:10am 3.1 1.5 2.7 97 0.2 CALM 0 0 0 0 1023.4 - 0.0
22/07:00am 3.6 2.1 3.2 97 0.2 CALM 0 0 0 0 1023.2 - 0.0
22/06:52am 3.4 1.9 3.0 97 0.2 CALM 0 0 0 0 1023.2 - 0.0
22/06:37am 3.8 2.4 3.4 97 0.2 CALM 0 0 0 0 1023.1 - 0.0
22/06:32am 3.8 2.4 3.4 97 0.2 CALM 0 0 0 0 1023.0 - 0.0
22/06:30am 3.8 2.4 3.4 97 0.2 CALM 0 0 0 0 1023.0 - 0.0
22/06:00am 4.0 2.6 3.6 97 0.2 CALM 0 0 0 0 1022.8 1022.8 0.0
22/05:30am 4.1 2.7 3.7 97 0.2 CALM 0 0 0 0 1022.5 - 0.0
22/05:00am 4.8 3.5 4.2 96 0.3 CALM 0 0 0 0 1022.6 - 0.0
22/04:30am 6.2 5.2 5.8 97 0.2 CALM 0 0 0 0 1022.5 - 0.0
22/04:28am 6.5 5.6 6.1 97 0.2 CALM 0 0 0 0 1022.5 - 0.0
22/04:00am 6.7 5.9 6.3 97 0.2 CALM 0 0 0 0 1022.4 - 0.0
22/03:30am 7.0 6.2 6.6 97 0.2 CALM 0 0 0 0 1022.5 - 0.0
22/03:00am 7.1 6.3 6.7 97 0.2 CALM 0 0 0 0 1022.6 1022.6 0.0
22/02:30am 7.2 6.5 6.8 97 0.2 CALM 0 0 0 0 1022.5 - 0.0
22/02:00am 7.1 6.3 6.7 97 0.2 CALM 0 0 0 0 1022.4 - 0.0
22/01:30am 7.1 6.3 6.7 97 0.2 CALM 0 0 0 0 1022.4 - 0.0
22/01:00am 6.9 6.1 6.5 97 0.2 CALM 0 0 0 0 1022.5 - 0.0
22/12:30am 6.8 6.0 6.4 97 0.2 CALM 0 0 0 0 1022.7 - 0.0
22/12:00am 6.3 5.4 5.9 97 0.2 CALM 0 0 0 0 1022.8 1022.8 0.0
 
Date/Time
CST
Temp
°C
App
Temp
°C
Dew
Point
Rel
Hum
%
Delta-T
°C
Wind Press
QNH
hPa
Press
MSL
hPa
Rain
since 9 am
mm
Dir
 
Spd
km/h
Gust
km/h
Spd
kts
Gust
kts
21/11:30pm 6.3 5.4 5.9 97 0.2 CALM 0 0 0 0 1022.8 - 0.0
21/11:00pm 5.9 4.9 5.5 97 0.2 CALM 0 0 0 0 1022.8 - 0.0
21/10:40pm 5.8 4.7 5.2 96 0.3 CALM 0 0 0 0 1022.8 - 0.0
21/10:30pm 5.8 4.7 5.2 96 0.3 CALM 0 0 0 0 1022.7 - 0.0
21/10:19pm 5.8 4.7 5.2 96 0.3 CALM 0 0 0 0 1022.7 - 0.0
21/10:00pm 7.1 6.3 6.5 96 0.3 CALM 0 0 0 0 1022.7 - 0.0
21/09:30pm 7.3 6.6 6.9 97 0.2 CALM 0 0 0 0 1022.7 - 0.0
21/09:00pm 6.6 5.7 6.0 96 0.3 CALM 0 0 0 0 1022.6 1022.6 0.0
21/08:30pm 6.2 5.2 5.5 95 0.3 CALM 0 0 0 0 1022.4 - 0.0
21/08:00pm 7.2 6.4 6.5 95 0.3 CALM 0 0 0 0 1022.3 - 0.0
21/07:30pm 8.4 7.8 7.3 93 0.5 CALM 0 0 0 0 1022.0 - 0.0
21/07:00pm 8.8 7.0 7.1 89 0.8 NE 6 7 3 4 1021.9 - 0.0
21/06:30pm 9.5 7.7 7.8 89 0.8 NE 7 9 4 5 1021.7 - 0.0
21/06:00pm 10.4 8.3 8.2 86 1.1 NE 9 11 5 6 1021.3 1021.3 0.0
21/05:30pm 11.4 9.4 8.8 84 1.3 NE 9 11 5 6 1021.2 - 0.0
21/05:00pm 12.5 10.6 9.1 80 1.7 NE 9 13 5 7 1021.0 - 0.0
21/04:30pm 12.5 10.2 9.1 80 1.7 NE 11 13 6 7 1020.9 - 0.0
21/04:00pm 13.0 10.3 9.1 77 2.0 NE 13 15 7 8 1020.7 - 0.0
21/03:30pm 13.7 10.8 8.3 70 2.7 NNE 13 15 7 8 1020.6 - 0.0
21/03:00pm 13.3 10.3 9.2 76 2.1 NE 15 19 8 10 1020.3 1020.3 0.0
21/02:30pm 14.5 11.1 9.1 70 2.8 NNE 17 20 9 11 1020.2 - 0.0
21/02:00pm 13.9 10.7 8.3 69 2.8 NE 15 22 8 12 1020.2 - 0.0
21/01:30pm 14.7 11.3 9.3 70 2.8 NE 17 20 9 11 1020.5 - 0.0
21/01:00pm 13.7 10.7 7.9 68 2.9 N 13 19 7 10 1020.8 - 0.0
21/12:30pm 13.6 10.2 7.8 68 2.9 N 15 20 8 11 1021.3 - 0.0
21/12:00pm 14.2 10.8 9.0 71 2.6 NNE 17 24 9 13 1021.7 1021.7 0.0
21/11:30am 13.7 11.2 8.1 69 2.8 N 11 15 6 8 1022.0 - 0.0
21/11:00am 14.2 11.0 8.4 68 2.9 N 15 20 8 11 1022.3 - 0.0
21/10:30am 13.8 10.2 8.2 69 2.8 N 17 22 9 12 1022.4 - 0.0
21/10:00am 12.7 9.4 8.2 74 2.2 N 15 20 8 11 1022.4 - 0.0
21/09:30am 10.8 10.7 9.4 91 0.7 CALM 0 0 0 0 1022.5 - 0.0
21/09:00am 8.8 8.4 8.4 97 0.2 CALM 0 0 0 0 1022.3 1022.3 0.0
21/08:30am 7.3 6.5 6.7 96 0.3 CALM 0 0 0 0 1022.1 - 0.0
21/08:00am 6.4 5.0 5.7 95 0.3 S 2 7 1 4 1022.1 - 0.0
21/07:30am 6.0 3.2 5.0 93 0.4 S 9 11 5 6 1021.8 - 0.0
21/07:00am 6.9 4.5 5.4 90 0.7 SW 7 9 4 5 1021.9 - 0.0
21/06:30am 9.7 7.8 7.6 87 1.0 N 7 9 4 5 1021.7 - 0.0
21/06:00am 9.6 7.0 7.9 89 0.8 NNE 11 15 6 8 1021.5 1021.5 0.0
21/05:30am 9.3 7.4 7.6 89 0.8 N 7 9 4 5 1021.4 - 0.0
21/05:00am 9.7 7.5 7.8 88 0.9 N 9 11 5 6 1021.5 - 0.0
21/04:30am 9.5 8.3 7.9 90 0.8 NE 4 13 2 7 1021.6 - 0.0
21/04:00am 9.3 8.8 7.7 90 0.8 CALM 0 0 0 0 1021.7 - 0.0

Other Formats:

Comma delimited format used in spreadsheet applications
http://www.bom.gov.au/fwo/IDS60801/IDS60801.95807.axf

JavaScript Object Notation format (JSON) in row-major order
http://www.bom.gov.au/fwo/IDS60801/IDS60801.95807.json